Time;durP1;ratioP1;P1;durP2;ratioP2;P2;SDS_P1;SDS_P2;PMS_P1;PMS_P2;Temp;Humidity;BMP_temperature;BMP_pressure;BME280_temperature;BME280_humidity;BME280_pressure;Samples;Min_cycle;Max_cycle;Signal;HPM_P1;HPM_P2
2022/05/12 00:00:15;;;;;;;14.10;2.25;;;9.10;84.30;;;;;;5045639;28;20064;-79
2022/05/12 00:02:43;;;;;;;;;;;9.20;84.40;;;;;;5031125;28;20045;-79
2022/05/12 00:05:12;;;;;;;13.73;1.98;;;9.10;84.30;;;;;;5047280;28;19936;-79
2022/05/12 00:07:41;;;;;;;20.73;2.40;;;9.10;84.30;;;;;;5037498;28;20053;-79
2022/05/12 00:10:10;;;;;;;10.32;1.70;;;9.20;84.30;;;;;;5045377;28;20056;-80
2022/05/12 00:12:39;;;;;;;9.10;2.00;;;9.20;84.30;;;;;;5044519;28;20048;-80
2022/05/12 00:15:13;;;;;;;13.13;2.38;;;9.30;84.20;;;;;;5045993;28;20076;-80
2022/05/12 00:17:44;;;;;;;5.38;1.40;;;9.30;84.10;;;;;;5028809;28;20048;-80
2022/05/12 00:20:14;;;;;;;10.80;2.38;;;9.30;84.10;;;;;;5046122;28;20049;-80
2022/05/12 00:22:42;;;;;;;10.40;1.95;;;9.40;84.10;;;;;;5046420;28;20049;-80
2022/05/12 00:25:15;;;;;;;8.00;1.85;;;9.50;84.00;;;;;;5045756;28;20049;-80
2022/05/12 00:27:43;;;;;;;7.18;1.88;;;9.50;84.00;;;;;;5046357;28;20053;-80
2022/05/12 00:30:12;;;;;;;7.05;1.90;;;9.50;84.10;;;;;;5026639;28;20560;-80
2022/05/12 00:32:43;;;;;;;11.60;2.50;;;9.60;84.20;;;;;;5040891;28;20052;-80
2022/05/12 00:35:12;;;;;;;7.20;1.65;;;9.50;84.10;;;;;;5045145;28;20060;-80
2022/05/12 00:37:39;;;;;;;12.35;2.17;;;9.60;84.10;;;;;;5047960;28;20060;-80
2022/05/12 00:40:08;;;;;;;7.20;2.15;;;9.50;84.20;;;;;;5048994;28;20053;-80
2022/05/12 00:42:36;;;;;;;7.60;2.13;;;9.50;84.20;;;;;;5050412;28;20072;-80
2022/05/12 00:45:04;;;;;;;8.65;1.85;;;9.40;84.30;;;;;;5016393;28;20053;-80
2022/05/12 00:47:32;;;;;;;11.82;2.10;;;9.30;84.50;;;;;;5040476;28;20065;-80
2022/05/12 00:50:00;;;;;;;9.15;2.38;;;9.30;84.50;;;;;;5058691;28;20041;-79
2022/05/12 00:52:29;;;;;;;7.57;2.03;;;9.20;84.70;;;;;;5038094;28;20059;-80
2022/05/12 00:55:20;;;;;;;14.07;2.25;;;9.10;84.90;;;;;;5031266;28;20044;-80
2022/05/12 00:57:55;;;;;;;8.32;2.10;;;9.00;85.20;;;;;;5016966;28;20048;-80
2022/05/12 01:00:23;;;;;;;7.68;2.00;;;9.00;85.40;;;;;;5050675;28;20659;-80
2022/05/12 01:02:55;;;;;;;9.73;2.47;;;8.90;85.60;;;;;;5031792;28;20056;-81
2022/05/12 01:05:24;;;;;;;13.88;2.13;;;8.90;85.70;;;;;;5032291;28;20501;-80
2022/05/12 01:07:55;;;;;;;10.90;2.58;;;8.80;85.90;;;;;;5029011;28;20525;-80
2022/05/12 01:10:25;;;;;;;9.52;1.90;;;8.80;86.20;;;;;;5036751;28;20556;-80
2022/05/12 01:12:53;;;;;;;14.13;2.30;;;8.80;86.30;;;;;;5066993;28;20052;-79
2022/05/12 01:15:24;;;;;;;10.13;2.03;;;8.80;86.40;;;;;;5055870;28;20041;-80
2022/05/12 01:18:06;;;;;;;8.05;2.05;;;8.80;86.50;;;;;;5059510;28;20060;-79
2022/05/12 01:20:34;;;;;;;10.38;1.50;;;8.80;86.50;;;;;;5056604;28;20052;-80
2022/05/12 01:23:06;;;;;;;6.32;1.80;;;8.80;86.60;;;;;;5050034;28;20053;-80
2022/05/12 01:25:34;;;;;;;12.57;2.53;;;8.80;86.60;;;;;;5030430;28;20418;-79
2022/05/12 01:28:02;;;;;;;4.60;1.73;;;8.80;86.60;;;;;;5047364;28;20490;-78
2022/05/12 01:30:29;;;;;;;11.30;1.65;;;8.70;86.70;;;;;;5048670;28;20045;-78
2022/05/12 01:32:57;;;;;;;13.77;2.42;;;8.70;86.80;;;;;;5047897;28;20049;-79
2022/05/12 01:35:25;;;;;;;12.80;1.92;;;8.70;86.80;;;;;;5030974;28;20043;-79
2022/05/12 01:37:53;;;;;;;12.57;2.10;;;8.70;86.70;;;;;;5048547;28;20064;-79
2022/05/12 01:40:23;;;;;;;5.20;1.65;;;8.60;86.80;;;;;;5047084;28;20089;-79
2022/05/12 01:42:52;;;;;;;8.30;1.85;;;8.60;86.90;;;;;;5044912;28;20052;-79
2022/05/12 01:45:21;;;;;;;9.65;2.13;;;8.60;86.80;;;;;;5030487;28;20056;-79
2022/05/12 01:47:50;;;;;;;6.30;1.73;;;8.60;86.80;;;;;;5048179;28;20045;-79
2022/05/12 01:50:20;;;;;;;10.43;1.90;;;8.50;86.60;;;;;;5048183;28;20506;-79
2022/05/12 01:52:47;;;;;;;8.43;1.50;;;8.50;86.50;;;;;;5030512;28;20391;-79
2022/05/12 01:55:18;;;;;;;11.13;2.15;;;8.50;86.50;;;;;;5048257;28;20430;-79
2022/05/12 01:57:47;;;;;;;7.38;1.90;;;8.50;86.40;;;;;;5047197;28;20076;-79
2022/05/12 02:00:21;;;;;;;11.80;1.90;;;8.50;86.40;;;;;;5047137;28;20049;-79
2022/05/12 02:02:50;;;;;;;8.63;1.95;;;8.50;86.30;;;;;;5037692;28;20169;-79
2022/05/12 02:05:19;;;;;;;8.30;1.90;;;8.50;86.10;;;;;;5048303;28;20410;-79
2022/05/12 02:07:48;;;;;;;13.27;2.42;;;8.50;86.10;;;;;;5047896;28;20045;-78
2022/05/12 02:10:26;;;;;;;7.63;2.38;;;8.40;86.00;;;;;;5048730;28;20513;-79
2022/05/12 02:12:54;;;;;;;10.48;2.00;;;8.40;85.80;;;;;;5050710;28;20044;-78
2022/05/12 02:15:23;;;;;;;12.40;1.58;;;8.30;85.80;;;;;;5030197;28;20055;-78
2022/05/12 02:17:51;;;;;;;12.05;2.03;;;8.20;85.90;;;;;;5049141;28;20041;-78
2022/05/12 02:20:21;;;;;;;8.43;1.83;;;8.10;85.90;;;;;;5048642;28;20045;-79
2022/05/12 02:22:49;;;;;;;10.70;2.50;;;8.00;86.00;;;;;;5047992;28;20541;-79
2022/05/12 02:25:17;;;;;;;12.60;1.95;;;7.90;86.10;;;;;;5047544;28;20041;-78
2022/05/12 02:27:46;;;;;;;7.90;2.03;;;7.90;86.20;;;;;;5048339;28;20059;-78
2022/05/12 02:30:21;;;;;;;8.55;1.52;;;7.80;86.30;;;;;;5027022;28;20772;-79
2022/05/12 02:32:49;;;;;;;9.35;2.20;;;7.80;86.40;;;;;;5037629;28;20045;-78
2022/05/12 02:35:18;;;;;;;7.13;1.90;;;7.80;86.40;;;;;;5047684;28;20056;-79
2022/05/12 02:37:46;;;;;;;7.85;2.05;;;7.80;86.30;;;;;;5046665;28;20064;-79
2022/05/12 02:40:18;;;;;;;9.63;1.83;;;7.80;86.30;;;;;;5047014;28;20406;-79
2022/05/12 02:42:46;;;;;;;13.57;2.10;;;7.80;86.40;;;;;;5044545;28;20057;-78
2022/05/12 02:45:15;;;;;;;8.85;1.75;;;7.80;86.30;;;;;;5054215;28;20045;-79
2022/05/12 02:47:43;;;;;;;8.85;1.92;;;7.80;86.50;;;;;;5042689;28;20068;-79
2022/05/12 02:50:13;;;;;;;13.85;3.10;;;7.90;86.40;;;;;;5049365;28;20037;-78
2022/05/12 02:52:41;;;;;;;12.75;1.88;;;7.90;86.40;;;;;;5047044;28;20049;-78
2022/05/12 02:55:10;;;;;;;8.98;2.05;;;7.90;86.50;;;;;;5038014;28;20045;-79
2022/05/12 02:57:39;;;;;;;10.25;1.88;;;7.80;86.60;;;;;;5026647;28;20414;-79
2022/05/12 03:00:10;;;;;;;7.13;1.73;;;7.90;86.60;;;;;;5028211;28;20048;-79
2022/05/12 03:02:38;;;;;;;8.40;2.05;;;8.00;86.50;;;;;;5029704;28;20387;-79
2022/05/12 03:05:06;;;;;;;6.75;1.25;;;8.00;86.30;;;;;;5046074;28;20064;-78
2022/05/12 03:07:35;;;;;;;3.70;1.50;;;8.10;86.20;;;;;;5045327;28;20390;-79
2022/05/12 03:10:03;;;;;;;9.07;2.08;;;8.20;86.00;;;;;;5047467;28;20410;-79
2022/05/12 03:12:32;;;;;;;5.30;1.50;;;8.20;85.90;;;;;;5030477;28;20052;-79
2022/05/12 03:15:00;;;;;;;7.25;1.67;;;8.20;85.90;;;;;;5046885;28;20394;-80
2022/05/12 03:17:28;;;;;;;12.95;1.63;;;8.30;85.80;;;;;;5047761;28;20056;-80
2022/05/12 03:19:56;;;;;;;7.63;1.92;;;8.20;85.80;;;;;;5048048;28;20051;-79
2022/05/12 03:22:24;;;;;;;11.02;1.67;;;8.20;85.80;;;;;;5013780;28;20510;-80
2022/05/12 03:24:51;;;;;;;8.07;1.92;;;8.20;85.90;;;;;;5049836;28;20048;-80
2022/05/12 03:27:19;;;;;;;6.93;2.03;;;8.20;86.00;;;;;;5054143;28;20510;-79
2022/05/12 03:29:47;;;;;;;8.55;1.83;;;8.20;86.60;;;;;;5055648;28;20049;-80
2022/05/12 03:32:14;;;;;;;11.07;1.92;;;8.20;86.60;;;;;;5042858;28;20045;-79
2022/05/12 03:34:43;;;;;;;11.02;2.20;;;8.20;86.70;;;;;;5034026;28;20438;-79
2022/05/12 03:37:11;;;;;;;8.30;2.20;;;8.10;86.70;;;;;;5029334;28;20061;-79
2022/05/12 03:39:43;;;;;;;14.27;2.40;;;8.00;86.80;;;;;;5030090;28;20051;-80
2022/05/12 03:42:12;;;;;;;12.73;2.50;;;8.00;86.90;;;;;;5046193;28;20529;-80
2022/05/12 03:44:46;;;;;;;17.10;2.75;;;7.90;86.90;;;;;;5027432;28;20045;-80
2022/05/12 03:47:19;;;;;;;16.80;2.92;;;7.80;87.00;;;;;;5051305;28;20497;-80
2022/05/12 03:49:49;;;;;;;10.95;2.35;;;7.70;87.10;;;;;;5028208;28;20049;-82
2022/05/12 03:52:18;;;;;;;11.05;2.60;;;7.70;87.20;;;;;;5046473;28;20418;-79
2022/05/12 03:54:45;;;;;;;11.63;2.90;;;7.60;87.30;;;;;;5046128;28;20060;-79
2022/05/12 03:57:14;;;;;;;6.78;2.38;;;7.50;87.40;;;;;;5044893;28;20057;-80
2022/05/12 03:59:42;;;;;;;11.50;3.20;;;7.40;87.40;;;;;;5046518;28;20044;-80
2022/05/12 04:02:13;;;;;;;13.10;2.60;;;7.30;87.40;;;;;;5028369;28;20060;-79
2022/05/12 04:04:42;;;;;;;10.35;2.45;;;7.20;87.50;;;;;;5047207;28;20053;-79
2022/05/12 04:07:12;;;;;;;15.20;2.75;;;7.00;87.70;;;;;;5046010;28;20060;-79
2022/05/12 04:09:41;;;;;;;9.88;3.20;;;7.00;87.90;;;;;;5037850;28;20049;-79
2022/05/12 04:12:09;;;;;;;14.10;3.45;;;6.90;88.00;;;;;;5048587;28;20422;-79
2022/05/12 04:14:41;;;;;;;14.30;3.78;;;6.80;88.10;;;;;;5049785;28;20219;-79
2022/05/12 04:17:13;;;;;;;16.20;3.20;;;6.80;88.50;;;;;;5049182;28;20088;-79
2022/05/12 04:19:45;;;;;;;17.95;3.40;;;6.90;88.80;;;;;;5049960;28;20045;-79
2022/05/12 04:22:13;;;;;;;10.07;3.28;;;7.00;88.90;;;;;;5050340;28;20064;-79
2022/05/12 04:24:40;;;;;;;11.90;3.05;;;7.10;89.00;;;;;;5032668;28;20383;-79
2022/05/12 04:27:08;;;;;;;7.78;2.22;;;7.20;89.00;;;;;;5050747;28;20055;-79
2022/05/12 04:29:38;;;;;;;12.15;2.58;;;7.30;89.20;;;;;;5049270;28;20052;-78
2022/05/12 04:32:06;;;;;;;12.77;3.58;;;7.30;89.30;;;;;;5046793;28;20595;-78
2022/05/12 04:37:30;;;;;;;14.68;3.03;;;7.50;89.70;;;;;;5049668;28;20430;-78
2022/05/12 04:40:08;;;;;;;10.48;2.20;;;7.60;89.80;;;;;;5052801;28;20059;-79
2022/05/12 04:42:35;;;;;;;7.72;2.58;;;7.70;89.60;;;;;;5053970;28;20057;-79
2022/05/12 04:45:07;;;;;;;8.63;2.45;;;7.70;89.60;;;;;;5049767;28;20048;-79
2022/05/12 04:47:37;;;;;;;15.48;2.60;;;7.70;89.50;;;;;;5030989;28;20056;-80
2022/05/12 04:50:07;;;;;;;16.80;3.78;;;7.80;89.50;;;;;;5048193;28;20537;-79
2022/05/12 04:52:35;;;;;;;9.00;2.40;;;7.80;89.50;;;;;;5051520;28;20049;-80
2022/05/12 04:55:03;;;;;;;10.70;2.90;;;7.90;89.50;;;;;;5046730;28;20544;-79
2022/05/12 04:57:36;;;;;;;12.68;2.20;;;7.80;89.50;;;;;;5031739;28;20061;-79
2022/05/12 05:00:06;;;;;;;11.55;2.33;;;7.90;89.50;;;;;;5031522;28;20055;-79
2022/05/12 05:02:34;;;;;;;15.63;2.42;;;7.90;89.30;;;;;;5023499;28;20041;-79
2022/05/12 05:05:04;;;;;;;11.65;2.03;;;8.00;89.30;;;;;;5048401;28;20063;-79
2022/05/12 05:07:33;;;;;;;13.57;2.35;;;8.00;89.20;;;;;;5021745;28;20056;-80
2022/05/12 05:10:02;;;;;;;8.70;2.35;;;8.00;89.20;;;;;;5048478;28;20049;-80
2022/05/12 05:12:31;;;;;;;7.00;1.77;;;8.00;89.10;;;;;;5048850;28;20045;-80
2022/05/12 05:14:58;;;;;;;7.70;2.03;;;8.00;89.10;;;;;;5048506;28;20057;-80
2022/05/12 05:17:27;;;;;;;6.70;2.08;;;8.10;89.20;;;;;;5047189;28;20397;-80
2022/05/12 05:19:55;;;;;;;7.95;2.58;;;8.10;89.10;;;;;;5049072;28;20041;-80
2022/05/12 05:22:23;;;;;;;9.80;2.78;;;8.20;89.10;;;;;;5030596;28;20056;-80
2022/05/12 05:24:50;;;;;;;12.93;2.60;;;8.30;89.00;;;;;;5031356;28;20064;-80
2022/05/12 05:27:18;;;;;;;16.73;2.60;;;8.30;88.90;;;;;;5049453;28;20063;-79
2022/05/12 05:29:45;;;;;;;6.88;1.90;;;8.30;88.90;;;;;;5047375;28;20615;-78
2022/05/12 05:32:13;;;;;;;15.75;2.75;;;8.40;88.70;;;;;;5044969;28;20322;-79
2022/05/12 05:34:41;;;;;;;8.55;1.85;;;8.40;88.60;;;;;;5048918;28;20410;-79
2022/05/12 05:37:08;;;;;;;8.07;2.13;;;8.50;88.50;;;;;;5059959;28;20056;-78
2022/05/12 05:39:36;;;;;;;13.32;2.47;;;8.50;88.30;;;;;;5044224;28;20061;-78
2022/05/12 05:42:09;;;;;;;12.00;2.25;;;8.50;88.20;;;;;;5054867;28;20045;-79
2022/05/12 05:44:37;;;;;;;11.57;2.63;;;8.60;88.10;;;;;;5025972;28;20049;-80
2022/05/12 05:47:05;;;;;;;9.18;2.13;;;8.70;88.00;;;;;;5048473;28;20060;-79
2022/05/12 05:49:33;;;;;;;10.13;2.22;;;8.70;87.80;;;;;;5046664;28;20052;-79
2022/05/12 05:54:47;;;;;;;6.75;1.60;;;8.80;87.10;;;;;;5051257;28;20505;-79
2022/05/12 05:57:24;;;;;;;9.30;1.65;;;8.90;86.80;;;;;;5030733;28;20057;-79
2022/05/12 05:59:56;;;;;;;9.45;1.80;;;8.90;86.60;;;;;;5049826;28;20052;-79
2022/05/12 06:02:24;;;;;;;7.43;2.08;;;9.00;86.40;;;;;;5047085;28;20052;-79
2022/05/12 06:04:52;;;;;;;6.53;1.42;;;9.00;86.40;;;;;;5048339;28;20041;-79
2022/05/12 06:07:20;;;;;;;5.50;1.80;;;9.00;86.40;;;;;;5021382;28;20056;-79
2022/05/12 06:09:47;;;;;;;9.52;1.88;;;9.10;86.20;;;;;;5024004;28;20853;-79
2022/05/12 06:12:15;;;;;;;2.05;0.68;;;9.10;85.90;;;;;;5027949;28;20413;-80
2022/05/12 06:14:43;;;;;;;9.65;1.83;;;9.20;85.70;;;;;;5036790;28;20573;-82
2022/05/12 06:17:11;;;;;;;8.65;1.95;;;9.20;85.50;;;;;;5051062;28;20069;-79
2022/05/12 06:19:41;;;;;;;4.65;1.73;;;9.30;85.50;;;;;;5031098;28;20389;-79
2022/05/12 06:22:09;;;;;;;6.53;1.60;;;9.30;85.30;;;;;;5049463;28;20056;-79
2022/05/12 06:24:38;;;;;;;9.10;1.83;;;9.30;85.30;;;;;;5038468;28;20068;-79
2022/05/12 06:27:06;;;;;;;7.25;1.67;;;9.30;85.40;;;;;;5025541;28;20462;-80
2022/05/12 06:29:36;;;;;;;6.47;1.30;;;9.30;85.10;;;;;;5034778;28;20057;-80
2022/05/12 06:32:06;;;;;;;10.13;1.83;;;9.40;85.00;;;;;;5041997;28;20036;-80
2022/05/12 06:34:34;;;;;;;6.60;1.38;;;9.50;84.90;;;;;;5029422;28;20140;-80
2022/05/12 06:37:04;;;;;;;8.85;1.52;;;9.50;84.50;;;;;;5029400;28;20051;-81
2022/05/12 06:39:31;;;;;;;9.45;1.90;;;9.60;84.40;;;;;;5062539;28;20052;-80
2022/05/12 06:41:59;;;;;;;7.72;1.48;;;9.70;84.30;;;;;;5037614;28;20040;-80
2022/05/12 06:44:42;;;;;;;8.57;1.52;;;9.80;84.30;;;;;;5009849;28;20065;-80
2022/05/12 06:47:12;;;;;;;4.35;1.27;;;9.80;83.90;;;;;;5046405;28;20049;-80
2022/05/12 06:49:41;;;;;;;4.78;1.30;;;10.00;83.30;;;;;;5053712;28;20036;-80
2022/05/12 06:52:10;;;;;;;6.28;1.15;;;10.10;83.10;;;;;;5035694;28;20056;-80
2022/05/12 06:54:39;;;;;;;8.90;1.80;;;10.20;82.50;;;;;;5048295;28;20059;-78
2022/05/12 06:57:07;;;;;;;6.25;1.33;;;10.30;82.50;;;;;;5042977;28;20049;-77
2022/05/12 06:59:39;;;;;;;11.70;1.35;;;10.30;82.40;;;;;;5044674;28;20056;-79
2022/05/12 07:02:08;;;;;;;9.00;2.08;;;10.50;81.90;;;;;;5059660;28;20528;-80
2022/05/12 07:04:36;;;;;;;7.28;1.25;;;10.50;81.70;;;;;;5042630;28;20044;-79
2022/05/12 07:07:05;;;;;;;11.25;1.40;;;10.60;81.30;;;;;;5061689;28;20061;-79
2022/05/12 07:09:33;;;;;;;5.00;1.30;;;10.60;81.10;;;;;;5041840;28;20056;-79
2022/05/12 07:12:01;;;;;;;5.45;1.20;;;10.60;80.80;;;;;;5054991;28;20057;-78
2022/05/12 07:14:29;;;;;;;5.75;1.48;;;10.70;80.50;;;;;;5059918;28;20084;-76
2022/05/12 07:16:56;;;;;;;5.13;1.20;;;10.70;80.50;;;;;;5035143;28;20049;-79
2022/05/12 07:19:25;;;;;;;8.20;1.15;;;10.80;80.60;;;;;;5058782;28;20064;-79
2022/05/12 07:27:26;;;;;;;1.83;0.65;;;10.90;79.20;;;;;;5028824;28;20410;-79
2022/05/12 07:29:54;;;;;;;5.88;1.27;;;10.90;79.10;;;;;;5034319;28;20061;-78
2022/05/12 07:32:22;;;;;;;4.72;1.27;;;10.90;78.70;;;;;;5053292;28;20132;-80
2022/05/12 07:34:50;;;;;;;4.47;1.25;;;10.90;79.20;;;;;;5044075;28;20494;-80
2022/05/12 07:37:19;;;;;;;11.73;1.75;;;10.90;79.30;;;;;;5053671;28;20045;-80
2022/05/12 07:39:47;;;;;;;5.57;1.35;;;11.00;79.20;;;;;;5029468;28;20569;-78
2022/05/12 07:42:15;;;;;;;13.75;1.40;;;11.10;79.00;;;;;;5046718;28;20076;-80
2022/05/12 07:44:43;;;;;;;10.85;1.70;;;11.20;78.70;;;;;;5054826;28;20052;-79
2022/05/12 07:47:13;;;;;;;5.15;1.02;;;11.20;78.80;;;;;;5058120;28;20494;-79
2022/05/12 07:49:42;;;;;;;6.15;1.45;;;11.30;79.00;;;;;;5047759;28;20052;-79
2022/05/12 07:52:13;;;;;;;8.00;1.30;;;11.30;78.90;;;;;;5047759;28;20045;-80
2022/05/12 07:54:42;;;;;;;6.13;1.40;;;11.40;78.80;;;;;;5048393;28;20056;-80
2022/05/12 07:57:10;;;;;;;5.90;1.00;;;11.50;78.60;;;;;;5047545;28;20052;-80
2022/05/12 07:59:44;;;;;;;4.43;1.08;;;11.70;78.50;;;;;;5047689;28;20422;-80
2022/05/12 08:02:16;;;;;;;7.25;1.63;;;11.80;78.10;;;;;;5047844;28;20045;-79
2022/05/12 08:04:46;;;;;;;7.57;1.60;;;11.80;77.40;;;;;;5030088;28;20064;-81
2022/05/12 08:07:15;;;;;;;8.02;1.50;;;11.90;76.40;;;;;;5029974;28;20049;-79
2022/05/12 08:09:44;;;;;;;7.00;1.42;;;12.00;76.80;;;;;;5029960;28;20048;-79
2022/05/12 08:12:12;;;;;;;9.13;1.63;;;12.10;76.90;;;;;;5048116;28;20057;-80
2022/05/12 08:14:40;;;;;;;5.18;1.00;;;12.10;75.90;;;;;;5036683;28;20079;-79
2022/05/12 08:17:09;;;;;;;2.80;1.00;;;12.20;74.30;;;;;;5056592;28;20067;-80
2022/05/12 08:19:37;;;;;;;8.15;1.45;;;12.20;74.20;;;;;;5049830;28;20057;-79
2022/05/12 08:22:07;;;;;;;5.93;0.90;;;12.20;72.80;;;;;;5029654;28;20057;-80
2022/05/12 08:24:35;;;;;;;4.10;1.30;;;12.20;73.40;;;;;;5028233;28;20061;-80
2022/05/12 08:27:03;;;;;;;7.15;1.10;;;12.30;73.30;;;;;;5027007;28;20451;-81
2022/05/12 08:29:31;;;;;;;8.75;1.38;;;12.40;72.70;;;;;;5028096;28;20489;-80
2022/05/12 08:31:59;;;;;;;8.63;1.20;;;12.50;72.60;;;;;;5027186;28;20595;-80
2022/05/12 08:34:28;;;;;;;5.78;1.20;;;12.50;72.00;;;;;;5032623;28;20041;-80
2022/05/12 08:36:55;;;;;;;9.90;1.27;;;12.70;71.20;;;;;;5036394;28;20060;-80
2022/05/12 08:39:24;;;;;;;3.28;0.57;;;12.70;71.60;;;;;;5029831;28;20068;-80
2022/05/12 08:41:59;;;;;;;8.18;1.20;;;12.80;71.00;;;;;;5026438;28;20053;-79
2022/05/12 08:44:31;;;;;;;9.85;1.38;;;12.80;70.90;;;;;;5026623;28;20057;-79
2022/05/12 08:47:03;;;;;;;4.50;0.70;;;12.80;71.10;;;;;;5025957;28;20049;-80
2022/05/12 08:49:35;;;;;;;6.30;1.17;;;12.80;70.30;;;;;;5009387;28;20045;-80
2022/05/12 08:52:24;;;;;;;5.60;1.10;;;12.80;69.70;;;;;;5027288;28;20513;-80
2022/05/12 08:55:13;;;;;;;5.55;1.20;;;12.80;70.50;;;;;;5026662;28;20064;-81
2022/05/12 08:58:00;;;;;;;8.30;0.85;;;12.80;70.00;;;;;;5027297;28;20060;-80
2022/05/12 09:00:36;;;;;;;8.88;0.90;;;12.80;69.80;;;;;;5038065;28;20418;-80
2022/05/12 09:03:26;;;;;;;5.47;0.75;;;12.80;69.00;;;;;;5049929;28;20056;-80
2022/05/12 09:06:02;;;;;;;2.75;0.73;;;12.70;68.60;;;;;;5050144;28;20053;-80
2022/05/12 09:09:09;;;;;;;8.93;1.38;;;12.70;69.30;;;;;;5050560;28;20053;-81
2022/05/12 09:11:50;;;;;;;9.55;1.60;;;12.80;68.40;;;;;;5010105;28;20045;-81
2022/05/12 09:14:34;;;;;;;5.53;1.42;;;12.90;68.90;;;;;;5031840;28;20083;-80
2022/05/12 09:17:10;;;;;;;5.85;0.90;;;13.00;69.00;;;;;;5028146;28;20515;-80
2022/05/12 09:19:38;;;;;;;8.60;1.23;;;13.10;68.20;;;;;;4992858;28;20058;-81
2022/05/12 09:22:06;;;;;;;7.53;0.85;;;13.30;66.70;;;;;;5017696;28;20498;-79
2022/05/12 09:24:34;;;;;;;3.83;0.95;;;13.30;66.00;;;;;;5030423;28;20068;-80
2022/05/12 09:27:08;;;;;;;8.32;1.25;;;13.50;65.80;;;;;;5035112;28;20487;-80
2022/05/12 09:29:49;;;;;;;5.97;0.82;;;13.80;65.70;;;;;;5031444;28;20056;-80
2022/05/12 09:32:23;;;;;;;7.13;1.10;;;14.00;65.60;;;;;;5014014;28;20049;-79
2022/05/12 09:35:31;;;;;;;8.13;1.13;;;14.20;65.00;;;;;;5038560;28;20057;-80
2022/05/12 09:38:18;;;;;;;5.32;1.27;;;14.30;63.40;;;;;;4940168;29;20096;-80
2022/05/12 09:40:46;;;;;;;1.20;0.47;;;14.40;61.80;;;;;;4930224;29;20070;-79
2022/05/12 09:43:31;;;;;;;7.57;1.50;;;14.30;63.30;;;;;;4940769;29;20062;-80
2022/05/12 09:46:18;;;;;;;3.38;1.08;;;14.20;61.80;;;;;;4932765;29;20059;-79
2022/05/12 09:48:48;;;;;;;9.55;1.10;;;14.30;58.60;;;;;;4932385;29;20051;-80
2022/05/12 09:51:27;;;;;;;12.38;0.90;;;14.20;58.90;;;;;;4937809;29;20056;-79
2022/05/12 09:54:30;;;;;;;4.07;0.63;;;14.20;58.10;;;;;;4954146;29;20898;-80
2022/05/12 09:57:12;;;;;;;5.22;0.73;;;14.20;57.20;;;;;;4921900;29;20047;-80
2022/05/12 09:59:53;;;;;;;5.60;0.82;;;14.30;55.80;;;;;;4938079;29;20055;-79
2022/05/12 10:08:22;;;;;;;5.82;1.20;;;14.90;53.80;;;;;;4958440;28;20059;-80
2022/05/12 10:10:54;;;;;;;4.43;1.00;;;14.70;53.30;;;;;;5011830;28;20057;-80
2022/05/12 10:13:42;;;;;;;5.07;0.98;;;14.80;54.40;;;;;;5010878;28;20058;-80
2022/05/12 10:16:13;;;;;;;5.63;0.85;;;14.90;55.00;;;;;;5010924;28;20038;-80
2022/05/12 10:18:49;;;;;;;6.93;1.15;;;15.00;54.10;;;;;;5014213;28;20064;-79
2022/05/12 10:21:45;;;;;;;3.75;0.52;;;15.00;54.50;;;;;;5044015;28;20486;-80
2022/05/12 10:24:32;;;;;;;10.52;1.00;;;15.10;55.00;;;;;;5053490;28;20521;-80
2022/05/12 10:27:13;;;;;;;4.53;0.63;;;15.00;55.20;;;;;;5045819;28;20045;-80
2022/05/12 10:29:43;;;;;;;4.53;1.13;;;15.00;55.60;;;;;;5060792;28;20494;-80
2022/05/12 10:32:45;;;;;;;4.18;1.00;;;15.00;55.10;;;;;;5044177;28;20040;-81
2022/05/12 10:35:16;;;;;;;4.38;0.95;;;15.00;55.80;;;;;;5027859;28;20048;-80
2022/05/12 10:38:23;;;;;;;8.13;1.33;;;15.10;54.40;;;;;;5052159;28;20056;-80
2022/05/12 10:41:14;;;;;;;5.95;1.15;;;15.10;53.90;;;;;;5052540;28;20384;-80
2022/05/12 10:43:47;;;;;;;8.32;1.52;;;15.20;53.90;;;;;;5051166;28;20060;-80
2022/05/12 10:46:23;;;;;;;4.03;1.00;;;15.40;53.80;;;;;;5053460;28;20064;-80
2022/05/12 10:49:03;;;;;;;9.07;1.27;;;15.80;52.40;;;;;;5052876;28;20064;-80
2022/05/12 10:51:39;;;;;;;4.32;1.10;;;16.10;53.10;;;;;;5060687;28;20044;-80
2022/05/12 10:54:26;;;;;;;5.78;1.25;;;16.30;52.10;;;;;;5053204;28;20102;-80
2022/05/12 10:57:13;;;;;;;6.90;1.08;;;16.20;50.30;;;;;;5052792;28;20063;-80
2022/05/12 11:00:18;;;;;;;7.18;1.08;;;15.90;50.90;;;;;;5053418;28;20489;-80
2022/05/12 11:02:50;;;;;;;6.40;1.15;;;15.50;52.60;;;;;;5050747;28;20216;-80
2022/05/12 11:05:38;;;;;;;3.60;0.73;;;15.30;53.30;;;;;;5052062;28;20399;-79
2022/05/12 11:08:11;;;;;;;4.75;1.20;;;15.00;51.80;;;;;;5051790;28;20052;-79
2022/05/12 11:10:42;;;;;;;;;;;14.60;52.00;;;;;;5071784;28;20053;-79
2022/05/12 11:13:32;;;;;;;3.47;0.88;;;14.30;53.20;;;;;;5039441;28;20400;-79
2022/05/12 11:16:05;;;;;;;9.27;1.15;;;14.10;54.50;;;;;;5047418;28;20053;-79
2022/05/12 11:18:51;;;;;;;4.75;1.27;;;13.90;55.30;;;;;;5034338;28;20051;-79
2022/05/12 11:21:29;;;;;;;4.57;1.20;;;13.90;56.40;;;;;;5050314;28;20052;-79
2022/05/12 11:24:24;;;;;;;8.13;1.13;;;14.00;56.80;;;;;;5052086;28;20061;-79
2022/05/12 11:27:16;;;;;;;10.30;1.17;;;14.10;56.50;;;;;;5029892;28;20041;-79
2022/05/12 11:29:51;;;;;;;5.35;0.77;;;14.30;56.00;;;;;;5052374;28;20395;-79
2022/05/12 11:32:40;;;;;;;10.48;1.50;;;14.30;54.90;;;;;;5051854;28;20045;-80
2022/05/12 11:35:19;;;;;;;5.57;0.90;;;14.50;55.40;;;;;;5051056;28;20064;-80
2022/05/12 11:37:54;;;;;;;9.90;1.13;;;14.60;53.40;;;;;;5051244;28;20053;-80
2022/05/12 11:40:44;;;;;;;4.22;1.02;;;14.80;53.00;;;;;;5032491;28;20045;-80
2022/05/12 11:46:31;;;;;;;4.50;0.73;;;15.40;51.00;;;;;;5063986;28;20532;-86
2022/05/12 11:49:10;;;;;;;8.10;1.42;;;15.30;51.10;;;;;;5015309;28;20057;-81
2022/05/12 11:52:02;;;;;;;7.07;0.90;;;15.20;50.10;;;;;;5034209;28;20049;-81
2022/05/12 11:54:33;;;;;;;11.40;1.35;;;15.20;49.20;;;;;;4954058;28;20046;-81
2022/05/12 11:57:03;;;;;;;15.85;1.33;;;15.10;49.10;;;;;;4951626;29;20051;-80
2022/05/12 11:59:33;;;;;;;5.40;1.10;;;15.30;48.50;;;;;;4969340;28;20054;-80
2022/05/12 12:02:26;;;;;;;11.00;1.20;;;15.60;48.60;;;;;;4967505;28;20099;-78
2022/05/12 12:05:20;;;;;;;7.10;1.27;;;15.70;47.40;;;;;;4973084;28;20057;-79
2022/05/12 12:07:50;;;;;;;6.22;0.57;;;15.80;46.90;;;;;;4947892;29;20059;-77
2022/05/12 12:10:23;;;;;;;5.00;1.23;;;15.90;44.20;;;;;;4951282;29;20047;-79
2022/05/12 12:13:02;;;;;;;9.77;1.20;;;16.00;43.80;;;;;;4952210;29;20063;-80
2022/05/12 12:15:30;;;;;;;7.18;1.08;;;16.00;44.70;;;;;;4952150;29;20055;-80
2022/05/12 12:18:00;;;;;;;5.45;0.90;;;16.00;45.50;;;;;;4952017;29;20064;-80
2022/05/12 12:20:33;;;;;;;3.28;0.80;;;15.90;46.50;;;;;;4950000;29;20055;-79
2022/05/12 12:23:24;;;;;;;;;;;16.00;45.70;;;;;;4956500;29;20051;-80
2022/05/12 12:26:27;;;;;;;7.63;1.13;;;15.90;45.30;;;;;;4950381;28;19923;-79
2022/05/12 12:29:17;;;;;;;8.27;1.20;;;15.80;45.70;;;;;;4926827;29;20059;-79
2022/05/12 12:31:48;;;;;;;5.25;1.35;;;15.80;45.40;;;;;;4927323;29;20048;-79
2022/05/12 12:34:19;;;;;;;4.07;0.75;;;16.00;45.90;;;;;;4943978;29;20051;-79
2022/05/12 12:36:51;;;;;;;4.55;0.73;;;16.40;45.50;;;;;;4954480;29;20063;-78
2022/05/12 12:39:56;;;;;;;6.43;1.08;;;16.60;43.20;;;;;;4955253;29;20063;-78
2022/05/12 12:42:34;;;;;;;6.88;1.60;;;16.40;45.10;;;;;;4951074;28;20524;-79
2022/05/12 12:45:11;;;;;;;10.65;1.50;;;16.30;44.80;;;;;;4987867;28;20050;-80
2022/05/12 12:48:00;;;;;;;5.15;1.23;;;16.00;44.60;;;;;;5022077;28;20034;-79
2022/05/12 12:50:43;;;;;;;2.85;1.00;;;15.80;45.10;;;;;;5034710;28;20045;-79
2022/05/12 12:56:34;;;;;;;4.93;1.05;;;15.80;46.00;;;;;;5034527;28;20505;-79
2022/05/12 12:59:07;;;;;;;6.18;1.05;;;15.80;45.80;;;;;;5034653;28;20403;-79
2022/05/12 13:01:56;;;;;;;7.30;1.10;;;15.80;45.30;;;;;;5038411;28;20045;-79
2022/05/12 13:04:30;;;;;;;9.52;1.48;;;15.90;44.70;;;;;;5033497;28;20064;-79
2022/05/12 13:07:10;;;;;;;6.22;1.30;;;16.00;46.20;;;;;;5034755;28;20050;-79
2022/05/12 13:09:41;;;;;;;6.63;1.38;;;16.30;46.00;;;;;;5034988;28;20050;-79
2022/05/12 13:12:21;;;;;;;12.43;1.17;;;16.50;45.80;;;;;;5034101;28;20494;-79
2022/05/12 13:14:51;;;;;;;10.05;1.08;;;16.60;45.10;;;;;;5036583;28;20042;-80
2022/05/12 13:17:26;;;;;;;4.72;1.17;;;16.60;44.30;;;;;;5016583;28;20407;-79
2022/05/12 13:19:59;;;;;;;2.90;0.52;;;16.50;44.20;;;;;;5035113;28;20041;-79
2022/05/12 13:22:44;;;;;;;4.70;0.67;;;16.60;43.90;;;;;;5033674;28;20499;-79
2022/05/12 13:25:17;;;;;;;5.93;1.08;;;16.80;44.20;;;;;;5034996;28;20172;-79
2022/05/12 13:27:46;;;;;;;1.75;0.68;;;16.90;43.20;;;;;;5042537;28;20041;-79
2022/05/12 13:30:18;;;;;;;6.47;1.00;;;16.90;43.50;;;;;;5053979;28;20070;-78
2022/05/12 13:32:52;;;;;;;20.73;1.60;;;17.00;43.10;;;;;;5054526;28;20041;-79
2022/05/12 13:35:21;;;;;;;5.68;1.00;;;17.30;43.30;;;;;;5053149;28;20204;-78
2022/05/12 13:38:00;;;;;;;6.88;0.85;;;17.40;42.50;;;;;;5054913;28;20041;-79
2022/05/12 13:40:51;;;;;;;5.40;0.70;;;17.30;42.30;;;;;;5035470;28;20041;-80
2022/05/12 13:43:23;;;;;;;9.02;1.55;;;16.80;43.70;;;;;;5036879;28;20056;-80